createdAt,value
2023-02-03T00:11:25.096Z,2.43
2023-02-03T00:13:51.317Z,2.35
2023-02-03T00:16:17.541Z,2.33
2023-02-03T00:18:43.773Z,2.35
2023-02-03T00:21:09.965Z,2.35
2023-02-03T00:23:36.187Z,2.30
2023-02-03T00:26:12.694Z,2.24
2023-02-03T00:28:38.929Z,2.27
2023-02-03T00:31:05.204Z,2.19
2023-02-03T00:33:31.435Z,2.23
2023-02-03T00:35:57.675Z,2.23
2023-02-03T00:38:26.730Z,2.24
2023-02-03T00:40:53.050Z,2.21
2023-02-03T00:43:19.490Z,2.18
2023-02-03T00:45:45.745Z,2.19
2023-02-03T00:48:11.987Z,2.20
2023-02-03T00:50:38.187Z,2.16
2023-02-03T00:53:04.399Z,2.13
2023-02-03T00:55:30.623Z,2.10
2023-02-03T00:57:56.822Z,2.14
2023-02-03T01:00:23.103Z,2.11
2023-02-03T01:02:49.322Z,2.14
2023-02-03T01:05:15.540Z,2.23
2023-02-03T01:07:41.737Z,2.24
2023-02-03T01:10:08.078Z,2.28
2023-02-03T01:12:34.283Z,2.28
2023-02-03T01:15:00.509Z,2.40
2023-02-03T01:17:26.710Z,2.37
2023-02-03T01:19:52.920Z,2.43
2023-02-03T01:22:19.122Z,2.49
2023-02-03T01:24:45.347Z,2.48
2023-02-03T01:27:11.546Z,2.52
2023-02-03T01:29:37.795Z,2.50
2023-02-03T01:32:04.019Z,2.50
2023-02-03T01:34:30.255Z,2.56
2023-02-03T01:36:56.450Z,2.62
2023-02-03T01:39:22.710Z,2.59
2023-02-03T01:41:48.920Z,2.62
2023-02-03T01:44:33.995Z,2.64
2023-02-03T01:47:00.200Z,2.63
2023-02-03T01:49:27.522Z,2.63
2023-02-03T01:51:53.728Z,2.64
2023-02-03T01:54:26.835Z,2.70
2023-02-03T01:56:54.791Z,2.76
2023-02-03T01:59:21.023Z,2.77
2023-02-03T02:01:47.283Z,2.76
2023-02-03T02:04:13.527Z,2.80
2023-02-03T02:06:39.744Z,2.82
2023-02-03T02:09:05.962Z,2.82
2023-02-03T02:11:32.179Z,2.87
2023-02-03T02:14:00.209Z,2.93
2023-02-03T02:16:55.882Z,2.96
2023-02-03T02:19:40.962Z,3.04
2023-02-03T02:22:21.896Z,3.09
2023-02-03T02:25:03.710Z,3.03
2023-02-03T02:27:33.498Z,3.04
2023-02-03T02:30:02.689Z,3.09
2023-02-03T02:32:30.840Z,3.15
2023-02-03T02:35:17.891Z,3.11
2023-02-03T02:37:59.351Z,3.18
2023-02-03T02:43:41.475Z,3.24
2023-02-03T02:46:15.856Z,3.27
2023-02-03T02:48:49.673Z,3.31
2023-02-03T02:51:15.893Z,3.35
2023-02-03T02:53:46.680Z,3.33
2023-02-03T02:56:15.305Z,3.40
2023-02-03T02:58:41.859Z,3.50
2023-02-03T03:01:08.244Z,3.53
2023-02-03T03:03:34.501Z,3.61
2023-02-03T03:06:05.021Z,3.57
2023-02-03T03:08:33.103Z,3.68
2023-02-03T03:10:59.312Z,3.75
2023-02-03T03:13:27.603Z,3.83
2023-02-03T03:15:53.874Z,3.94
2023-02-03T03:18:24.664Z,3.95
2023-02-03T03:20:50.968Z,4.14
2023-02-03T03:23:21.844Z,4.21
2023-02-03T03:25:49.435Z,4.33
2023-02-03T03:28:16.716Z,4.44
2023-02-03T03:30:43.000Z,4.47
2023-02-03T03:33:09.228Z,4.50
2023-02-03T03:35:47.154Z,4.70
2023-02-03T03:38:16.307Z,4.76
2023-02-03T03:40:43.526Z,4.82
2023-02-03T03:43:14.687Z,4.89
2023-02-03T03:45:45.518Z,5.01
2023-02-03T03:48:13.000Z,5.03
2023-02-03T03:50:41.663Z,5.13
2023-02-03T03:53:07.870Z,5.08
2023-02-03T03:55:34.325Z,5.12
2023-02-03T03:58:04.734Z,5.15
2023-02-03T04:00:31.660Z,5.17
2023-02-03T04:02:58.290Z,5.23
2023-02-03T04:05:24.535Z,5.27
2023-02-03T04:07:50.730Z,5.33
2023-02-03T04:10:27.587Z,5.42
2023-02-03T04:12:53.971Z,5.48
2023-02-03T04:15:20.184Z,5.54
2023-02-03T04:17:46.385Z,5.62
2023-02-03T04:20:12.705Z,5.68
2023-02-03T04:22:38.905Z,5.71
2023-02-03T04:25:05.319Z,5.89
2023-02-03T04:27:31.519Z,5.92
2023-02-03T04:29:57.733Z,6.13
2023-02-03T04:32:23.952Z,6.22
2023-02-03T04:34:50.175Z,6.29
2023-02-03T04:37:16.382Z,6.36
2023-02-03T04:39:42.597Z,6.44
2023-02-03T04:42:08.808Z,6.42
2023-02-03T04:44:35.044Z,6.42
2023-02-03T04:47:01.241Z,6.46
2023-02-03T04:49:27.448Z,6.49
2023-02-03T04:51:53.672Z,6.46
2023-02-03T04:54:19.908Z,6.45
2023-02-03T04:56:46.130Z,6.45
2023-02-03T04:59:12.343Z,6.51
2023-02-03T05:01:38.537Z,6.48
2023-02-03T05:04:04.811Z,6.53
2023-02-03T05:06:31.031Z,6.49
2023-02-03T05:08:57.736Z,6.54
2023-02-03T05:11:23.963Z,6.66
2023-02-03T05:13:50.180Z,6.61
2023-02-03T05:16:16.461Z,6.57
2023-02-03T05:18:42.692Z,6.64
2023-02-03T05:21:08.912Z,6.62
2023-02-03T05:23:36.761Z,6.65
2023-02-03T05:26:03.130Z,6.64
2023-02-03T05:28:29.329Z,6.66
2023-02-03T05:30:57.804Z,6.64
2023-02-03T05:33:24.047Z,6.67
2023-02-03T05:35:50.271Z,6.67
2023-02-03T05:38:16.486Z,6.71
2023-02-03T05:40:42.702Z,6.66
2023-02-03T05:43:08.905Z,6.68
2023-02-03T05:45:35.178Z,6.72
2023-02-03T05:48:01.440Z,6.76
2023-02-03T05:50:28.391Z,6.75
2023-02-03T05:52:54.791Z,6.74
2023-02-03T05:55:21.010Z,6.68
2023-02-03T05:57:47.210Z,6.70
2023-02-03T06:00:13.676Z,6.69
2023-02-03T06:02:39.867Z,6.76
2023-02-03T06:05:06.298Z,6.70
2023-02-03T06:07:32.499Z,6.67
2023-02-03T06:09:58.718Z,6.71
2023-02-03T06:12:26.462Z,6.72
2023-02-03T06:14:53.715Z,6.73
2023-02-03T06:17:19.917Z,6.80
2023-02-03T06:19:46.155Z,6.81
2023-02-03T06:22:12.354Z,6.76
2023-02-03T06:27:18.730Z,6.85
2023-02-03T06:29:44.962Z,6.82
2023-02-03T06:32:11.297Z,6.85
2023-02-03T06:34:37.549Z,6.86
2023-02-03T06:37:03.778Z,6.91
2023-02-03T06:39:29.984Z,6.92
2023-02-03T06:41:56.193Z,6.91
2023-02-03T06:44:22.447Z,6.96
2023-02-03T06:46:48.700Z,6.97
2023-02-03T06:49:14.902Z,7.00
2023-02-03T06:51:41.108Z,7.00
2023-02-03T06:54:07.316Z,6.99
2023-02-03T06:56:33.550Z,7.00
2023-02-03T06:58:59.756Z,7.05
2023-02-03T07:01:26.038Z,7.05
2023-02-03T07:03:52.340Z,7.06
2023-02-03T07:06:18.554Z,7.10
2023-02-03T07:08:44.748Z,7.08
2023-02-03T07:11:10.990Z,7.12
2023-02-03T07:13:37.205Z,7.08
2023-02-03T07:16:03.566Z,7.11
2023-02-03T07:18:46.850Z,7.12
2023-02-03T07:21:14.213Z,7.13
2023-02-03T07:23:40.503Z,7.15
2023-02-03T07:26:06.856Z,7.15
2023-02-03T07:28:36.337Z,7.21
2023-02-03T07:31:03.019Z,7.14
2023-02-03T07:33:29.262Z,7.21
2023-02-03T07:35:55.889Z,7.15
2023-02-03T07:38:22.187Z,7.17
2023-02-03T07:40:48.428Z,7.22
2023-02-03T07:43:14.635Z,7.27
2023-02-03T07:45:40.856Z,7.28
2023-02-03T07:48:08.921Z,7.28
2023-02-03T07:50:35.140Z,7.31
2023-02-03T07:53:01.369Z,7.33
2023-02-03T07:55:28.618Z,7.33
2023-02-03T07:57:55.219Z,7.32
2023-02-03T08:00:21.499Z,7.44
2023-02-03T08:02:47.706Z,7.48
2023-02-03T08:05:14.126Z,7.46
2023-02-03T08:07:40.466Z,7.55
2023-02-03T08:10:07.002Z,7.51
2023-02-03T08:12:33.312Z,7.51
2023-02-03T08:14:59.544Z,7.52
2023-02-03T08:17:25.770Z,7.52
2023-02-03T08:19:52.043Z,7.40
2023-02-03T08:22:18.254Z,7.35
2023-02-03T08:24:44.716Z,7.24
2023-02-03T08:27:11.712Z,7.16
2023-02-03T08:29:37.962Z,7.06
2023-02-03T08:32:05.403Z,7.06
2023-02-03T08:34:32.542Z,7.03
2023-02-03T08:39:39.860Z,6.99
2023-02-03T08:42:06.193Z,6.94
2023-02-03T08:44:32.405Z,6.98
2023-02-03T08:46:58.782Z,6.96
2023-02-03T08:49:28.744Z,6.96
2023-02-03T08:51:56.284Z,7.03
2023-02-03T08:54:22.510Z,6.94
2023-02-03T08:56:50.725Z,6.97
2023-02-03T08:59:17.120Z,7.02
2023-02-03T09:01:43.342Z,7.14
2023-02-03T09:04:09.541Z,7.09
2023-02-03T09:06:35.881Z,7.08
2023-02-03T09:09:02.276Z,7.05
2023-02-03T09:11:29.051Z,7.03
2023-02-03T09:13:55.277Z,7.15
2023-02-03T09:16:21.621Z,7.15
2023-02-03T09:18:49.858Z,7.10
2023-02-03T09:21:31.622Z,7.15
2023-02-03T09:24:03.017Z,7.25
2023-02-03T09:26:29.237Z,7.27
2023-02-03T09:28:55.447Z,7.21
2023-02-03T09:31:21.818Z,7.22
2023-02-03T09:33:48.041Z,7.21
2023-02-03T09:36:14.275Z,7.24
2023-02-03T09:38:41.500Z,7.22
2023-02-03T09:41:12.105Z,7.25
2023-02-03T09:43:45.892Z,7.15
2023-02-03T09:46:12.200Z,7.14
2023-02-03T09:48:40.781Z,7.11
2023-02-03T09:51:07.341Z,7.08
2023-02-03T09:53:35.794Z,7.19
2023-02-03T09:56:02.016Z,7.39
2023-02-03T09:58:29.231Z,7.44
2023-02-03T10:00:59.229Z,7.40
2023-02-03T10:03:44.260Z,7.52
2023-02-03T10:06:18.837Z,7.71
2023-02-03T10:09:03.441Z,7.62
2023-02-03T10:11:38.831Z,7.60
2023-02-03T10:14:11.132Z,7.68
2023-02-03T10:16:43.124Z,7.63
2023-02-03T10:19:11.257Z,7.52
2023-02-03T10:21:51.341Z,7.65
2023-02-03T10:24:24.041Z,8.02
2023-02-03T10:26:50.410Z,7.96
2023-02-03T10:29:16.688Z,7.87
2023-02-03T10:31:43.247Z,7.80
2023-02-03T10:34:13.805Z,7.84
2023-02-03T10:36:40.034Z,7.72
2023-02-03T10:39:18.558Z,7.63
2023-02-03T10:41:47.857Z,7.58
2023-02-03T10:44:14.372Z,7.49
2023-02-03T10:46:42.118Z,7.27
2023-02-03T10:49:10.733Z,7.10
2023-02-03T10:51:37.646Z,6.67
2023-02-03T10:54:04.197Z,6.32
2023-02-03T10:56:35.358Z,6.11
2023-02-03T10:59:01.583Z,6.05
2023-02-03T11:01:28.762Z,6.06
2023-02-03T11:03:54.963Z,6.12
2023-02-03T11:06:21.163Z,6.17
2023-02-03T11:08:47.977Z,6.33
2023-02-03T11:11:19.915Z,6.37
2023-02-03T11:13:46.158Z,6.47
2023-02-03T11:16:14.029Z,6.58
2023-02-03T11:18:47.700Z,6.72
2023-02-03T11:21:15.136Z,6.94
2023-02-03T11:24:10.727Z,6.97
2023-02-03T11:26:57.155Z,6.98
2023-02-03T11:29:24.176Z,6.93
2023-02-03T11:31:51.420Z,6.97
2023-02-03T11:34:19.111Z,7.01
2023-02-03T11:36:45.337Z,7.01
2023-02-03T11:39:11.688Z,7.07
2023-02-03T11:41:39.349Z,7.10
2023-02-03T11:44:12.421Z,7.17
2023-02-03T11:46:39.035Z,7.18
2023-02-03T11:49:15.089Z,7.17
2023-02-03T11:51:46.645Z,7.18
2023-02-03T11:54:15.872Z,7.21
2023-02-03T11:56:50.555Z,7.25
2023-02-03T11:59:46.427Z,7.21
2023-02-03T12:02:36.219Z,7.24
2023-02-03T12:05:15.245Z,7.31
2023-02-03T12:07:50.285Z,7.41
2023-02-03T12:10:25.801Z,7.48
2023-02-03T12:13:10.827Z,7.48
2023-02-03T12:15:41.762Z,7.54
2023-02-03T12:18:46.765Z,7.56
2023-02-03T12:21:31.472Z,7.58
2023-02-03T12:24:03.152Z,7.54
2023-02-03T12:26:50.730Z,7.50
2023-02-03T12:29:27.592Z,7.52
2023-02-03T12:31:56.866Z,7.50
2023-02-03T12:34:33.358Z,7.45
2023-02-03T12:37:04.643Z,7.43
2023-02-03T12:39:33.209Z,7.48
2023-02-03T12:42:18.375Z,7.44
2023-02-03T12:44:48.804Z,7.49
2023-02-03T12:47:21.240Z,7.38
2023-02-03T12:49:49.331Z,7.34
2023-02-03T12:52:21.044Z,7.17
2023-02-03T12:54:49.783Z,6.96
2023-02-03T12:57:36.228Z,6.84
2023-02-03T13:00:04.846Z,6.74
2023-02-03T13:02:32.771Z,6.64
2023-02-03T13:05:05.391Z,6.66
2023-02-03T13:07:43.075Z,6.66
2023-02-03T13:10:14.790Z,6.62
2023-02-03T13:12:45.547Z,6.59
2023-02-03T13:15:20.497Z,6.62
2023-02-03T13:17:48.729Z,6.71
2023-02-03T13:20:21.938Z,6.74
2023-02-03T13:22:48.172Z,6.75
2023-02-03T13:25:29.483Z,6.76
2023-02-03T13:27:58.827Z,6.83
2023-02-03T13:30:28.940Z,6.81
2023-02-03T13:32:58.329Z,6.86
2023-02-03T13:35:34.281Z,6.89
2023-02-03T13:38:07.362Z,6.77
2023-02-03T13:40:52.376Z,6.74
2023-02-03T13:43:36.905Z,6.65
2023-02-03T13:46:04.299Z,6.57
2023-02-03T13:48:31.009Z,6.54
2023-02-03T13:51:15.960Z,6.49
2023-02-03T13:53:43.150Z,6.50
2023-02-03T13:56:16.275Z,6.46
2023-02-03T13:58:42.483Z,6.38
2023-02-03T14:01:08.709Z,6.36
2023-02-03T14:03:34.906Z,6.32
2023-02-03T14:06:04.047Z,6.25
2023-02-03T14:08:30.262Z,6.20
2023-02-03T14:11:15.070Z,6.13
2023-02-03T14:13:41.314Z,6.09
2023-02-03T14:16:14.458Z,6.04
2023-02-03T14:18:46.828Z,6.05
2023-02-03T14:21:14.806Z,6.05
2023-02-03T14:23:42.647Z,6.01
2023-02-03T14:26:14.832Z,5.98
2023-02-03T14:28:44.522Z,5.95
2023-02-03T14:31:11.670Z,5.97
2023-02-03T14:33:55.992Z,5.92
2023-02-03T14:36:28.143Z,5.89
2023-02-03T14:38:54.563Z,5.93
2023-02-03T14:41:26.670Z,5.94
2023-02-03T14:44:00.470Z,5.98
2023-02-03T14:46:40.371Z,6.00
2023-02-03T14:49:18.885Z,5.98
2023-02-03T14:51:53.922Z,5.99
2023-02-03T14:54:30.367Z,6.02
2023-02-03T14:56:59.583Z,6.02
2023-02-03T14:59:28.596Z,6.11
2023-02-03T15:02:20.953Z,6.06
2023-02-03T15:04:47.299Z,6.06
2023-02-03T15:07:32.218Z,6.02
2023-02-03T15:09:58.439Z,6.06
2023-02-03T15:12:25.360Z,6.01
2023-02-03T15:14:51.946Z,6.11
2023-02-03T15:17:22.312Z,6.15
2023-02-03T15:19:48.559Z,6.13
2023-02-03T15:22:21.578Z,6.10
2023-02-03T15:24:47.875Z,6.24
2023-02-03T15:27:23.863Z,6.23
2023-02-03T15:29:50.110Z,6.21
2023-02-03T15:32:18.166Z,6.26
2023-02-03T15:34:48.013Z,6.26
2023-02-03T15:37:16.705Z,6.28
2023-02-03T15:39:47.884Z,6.33
2023-02-03T15:42:34.411Z,6.29
2023-02-03T15:45:14.449Z,6.25
2023-02-03T15:47:41.415Z,6.26
2023-02-03T15:50:14.155Z,6.22
2023-02-03T15:52:40.352Z,6.26
2023-02-03T15:55:16.982Z,6.22
2023-02-03T15:57:44.047Z,6.21
2023-02-03T16:00:28.665Z,6.11
2023-02-03T16:02:54.910Z,6.09
2023-02-03T16:05:25.545Z,6.05
2023-02-03T16:07:51.859Z,6.08
2023-02-03T16:10:33.533Z,6.14
2023-02-03T16:13:17.925Z,6.06
2023-02-03T16:15:44.181Z,6.10
2023-02-03T16:18:16.649Z,6.03
2023-02-03T16:20:49.467Z,6.13
2023-02-03T16:23:22.152Z,6.07
2023-02-03T16:26:03.657Z,6.06
2023-02-03T16:28:32.187Z,6.06
2023-02-03T16:31:13.357Z,6.07
2023-02-03T16:33:39.633Z,6.09
2023-02-03T16:36:12.761Z,6.01
2023-02-03T16:38:38.971Z,5.98
2023-02-03T16:41:05.884Z,5.95
2023-02-03T16:43:32.115Z,5.88
2023-02-03T16:45:58.782Z,5.82
2023-02-03T16:48:25.008Z,5.85
2023-02-03T16:50:51.275Z,5.84
2023-02-03T16:53:18.640Z,5.89
2023-02-03T16:55:44.900Z,5.85
2023-02-03T16:58:11.120Z,5.87
2023-02-03T17:00:37.417Z,5.85
2023-02-03T17:03:03.912Z,5.82
2023-02-03T17:05:30.443Z,5.86
2023-02-03T17:07:56.842Z,5.85
2023-02-03T17:10:23.583Z,5.81
2023-02-03T17:12:51.202Z,5.78
2023-02-03T17:15:17.404Z,5.74
2023-02-03T17:17:43.629Z,5.73
2023-02-03T17:20:09.951Z,5.75
2023-02-03T17:22:36.154Z,5.74
2023-02-03T17:25:02.440Z,5.77
2023-02-03T17:27:28.679Z,5.80
2023-02-03T17:29:54.883Z,5.75
2023-02-03T17:32:21.112Z,5.75
2023-02-03T17:34:47.307Z,5.75
2023-02-03T17:37:13.526Z,5.76
2023-02-03T17:53:19.500Z,5.65
2023-02-03T17:55:45.707Z,5.64
2023-02-03T17:58:11.915Z,5.63
2023-02-03T18:00:38.117Z,5.62
2023-02-03T18:03:04.333Z,5.63
2023-02-03T18:05:30.535Z,5.60
2023-02-03T18:07:56.760Z,5.59
2023-02-03T18:10:22.958Z,5.58
2023-02-03T18:12:49.178Z,5.58
2023-02-03T18:15:15.377Z,5.58
2023-02-03T18:17:41.598Z,5.58
2023-02-03T18:20:08.083Z,5.58
2023-02-03T18:22:34.289Z,5.57
2023-02-03T18:25:03.362Z,5.58
2023-02-03T18:27:29.571Z,5.58
2023-02-03T18:29:55.779Z,5.54
2023-02-03T18:32:21.977Z,5.46
2023-02-03T18:34:48.184Z,5.02
2023-02-03T18:37:14.401Z,4.74
2023-02-03T18:39:40.617Z,4.54
2023-02-03T18:42:06.826Z,4.41
2023-02-03T18:44:33.041Z,4.44
2023-02-03T18:46:59.238Z,4.37
2023-02-03T18:49:25.442Z,4.34
2023-02-03T18:51:51.636Z,4.31
2023-02-03T18:54:17.844Z,4.28
2023-02-03T18:56:44.036Z,4.21
2023-02-03T18:59:10.452Z,4.19
2023-02-03T19:01:36.841Z,4.08
2023-02-03T19:04:03.128Z,4.06
2023-02-03T19:06:29.551Z,4.00
2023-02-03T19:08:55.853Z,3.93
2023-02-03T19:11:22.100Z,3.92
2023-02-03T19:13:48.329Z,3.82
2023-02-03T19:16:15.038Z,3.85
2023-02-03T19:18:41.325Z,3.81
2023-02-03T19:21:07.534Z,3.78
2023-02-03T19:23:33.740Z,3.74
2023-02-03T19:25:59.962Z,3.73
2023-02-03T19:28:30.831Z,3.70
2023-02-03T19:31:08.488Z,3.77
2023-02-03T19:33:35.218Z,3.70
2023-02-03T19:36:01.466Z,3.77
2023-02-03T19:38:27.693Z,3.73
2023-02-03T19:40:53.913Z,3.72
2023-02-03T19:43:20.115Z,3.71
2023-02-03T19:45:46.345Z,3.64
2023-02-03T19:48:12.547Z,3.63
2023-02-03T19:50:38.766Z,3.61
2023-02-03T19:53:04.963Z,3.61
2023-02-03T19:55:31.175Z,3.63
2023-02-03T19:57:57.720Z,3.63
2023-02-03T20:00:23.925Z,3.60
2023-02-03T20:02:50.134Z,3.60
2023-02-03T20:05:16.338Z,3.68
2023-02-03T20:07:42.536Z,3.64
2023-02-03T20:10:08.879Z,3.66
2023-02-03T20:12:35.079Z,3.65
2023-02-03T20:15:01.296Z,3.64
2023-02-03T20:17:27.875Z,3.61
2023-02-03T20:19:54.091Z,3.62
2023-02-03T20:22:20.300Z,3.62
2023-02-03T20:24:46.504Z,3.62
2023-02-03T20:27:12.705Z,3.63
2023-02-03T20:29:38.920Z,3.62
2023-02-03T20:32:05.254Z,3.66
2023-02-03T20:34:31.498Z,3.62
2023-02-03T20:36:57.712Z,3.62
2023-02-03T20:39:23.924Z,3.60
2023-02-03T20:41:50.140Z,3.62
2023-02-03T20:44:16.569Z,3.58
2023-02-03T20:46:42.845Z,3.58
2023-02-03T20:49:15.814Z,3.56
2023-02-03T20:51:42.048Z,3.47
2023-02-03T20:54:13.210Z,3.43
2023-02-03T20:56:39.412Z,3.44
2023-02-03T20:59:08.196Z,3.38
2023-02-03T21:01:34.509Z,3.38
2023-02-03T21:04:00.708Z,3.40
2023-02-03T21:06:27.662Z,3.40
2023-02-03T21:08:53.876Z,3.38
2023-02-03T21:11:20.534Z,3.38
2023-02-03T21:13:47.139Z,3.37
2023-02-03T21:16:17.045Z,3.36
2023-02-03T21:18:43.220Z,3.39
2023-02-03T21:21:15.532Z,3.39
2023-02-03T21:23:42.339Z,3.37
2023-02-03T21:26:17.716Z,3.34
2023-02-03T21:28:43.924Z,3.34
2023-02-03T21:31:20.782Z,3.34
2023-02-03T21:33:47.035Z,3.32
2023-02-03T21:36:14.621Z,3.34
2023-02-03T21:38:40.822Z,3.31
2023-02-03T21:41:16.919Z,3.31
2023-02-03T21:43:43.687Z,3.30
2023-02-03T21:46:19.759Z,3.27
2023-02-03T21:48:47.937Z,3.24
2023-02-03T21:51:21.425Z,3.28
2023-02-03T21:53:49.010Z,3.26
2023-02-03T21:56:16.202Z,3.23
2023-02-03T21:58:42.424Z,3.24
2023-02-03T22:01:08.660Z,3.24
2023-02-03T22:03:36.035Z,3.27
2023-02-03T22:06:02.212Z,3.25
2023-02-03T22:08:28.417Z,3.26
2023-02-03T22:10:54.633Z,3.23
2023-02-03T22:13:20.830Z,3.23
2023-02-03T22:15:47.050Z,3.24
2023-02-03T22:18:13.263Z,3.25
2023-02-03T22:20:39.470Z,3.27
2023-02-03T22:23:05.680Z,3.28
2023-02-03T22:25:31.878Z,3.28
2023-02-03T22:27:58.146Z,3.28
2023-02-03T22:30:24.361Z,3.31
2023-02-03T22:32:50.579Z,3.35
2023-02-03T22:35:16.798Z,3.33
2023-02-03T22:37:43.011Z,3.29
2023-02-03T22:40:09.541Z,3.29
2023-02-03T22:42:35.751Z,3.29
2023-02-03T22:45:01.955Z,3.29
2023-02-03T22:47:28.164Z,3.30
2023-02-03T22:49:54.373Z,3.29
2023-02-03T22:52:20.575Z,3.27
2023-02-03T22:54:46.767Z,3.26
2023-02-03T22:57:12.969Z,3.29
2023-02-03T22:59:39.163Z,3.24
2023-02-03T23:02:05.380Z,3.29
2023-02-03T23:04:31.636Z,3.24
2023-02-03T23:06:57.856Z,3.27
2023-02-03T23:09:24.063Z,3.23
2023-02-03T23:11:50.266Z,3.26
2023-02-03T23:14:16.476Z,3.27
2023-02-03T23:16:43.002Z,3.28
2023-02-03T23:19:09.214Z,3.27
2023-02-03T23:21:35.428Z,3.25
2023-02-03T23:24:01.628Z,3.24
2023-02-03T23:26:27.833Z,3.20
2023-02-03T23:28:54.037Z,3.21
2023-02-03T23:31:20.378Z,3.14
2023-02-03T23:33:46.656Z,3.13
2023-02-03T23:36:12.858Z,3.16
2023-02-03T23:38:39.046Z,3.16
2023-02-03T23:41:05.253Z,3.15
2023-02-03T23:43:31.490Z,3.14
2023-02-03T23:45:57.735Z,3.12
2023-02-03T23:48:23.988Z,3.09
2023-02-03T23:50:50.228Z,3.12
2023-02-03T23:53:16.435Z,3.12
2023-02-03T23:55:42.641Z,3.10
2023-02-03T23:58:08.869Z,3.10
